createdAt,value
2019-02-06T00:06:25.315Z,88.30
2019-02-06T00:16:27.120Z,88.60
2019-02-06T00:26:29.466Z,88.60
2019-02-06T00:36:31.090Z,89.00
2019-02-06T00:46:32.896Z,90.10
2019-02-06T00:56:34.356Z,89.40
2019-02-06T01:06:36.224Z,88.70
2019-02-06T01:16:37.695Z,89.40
2019-02-06T01:26:40.551Z,88.70
2019-02-06T01:36:42.465Z,87.60
2019-02-06T01:46:43.872Z,89.00
2019-02-06T01:56:45.335Z,88.30
2019-02-06T02:06:47.157Z,89.00
2019-02-06T02:16:48.563Z,90.00
2019-02-06T02:26:51.988Z,90.40
2019-02-06T02:36:53.885Z,90.90
2019-02-06T02:46:55.391Z,91.30
2019-02-06T02:56:56.860Z,91.60
2019-02-06T03:06:58.391Z,91.70
2019-02-06T03:17:03.070Z,91.60
2019-02-06T03:27:04.186Z,92.00
2019-02-06T03:37:05.780Z,91.70
2019-02-06T03:47:07.433Z,91.90
2019-02-06T03:57:08.891Z,91.90
2019-02-06T04:07:10.560Z,91.80
2019-02-06T04:17:12.016Z,91.70
2019-02-06T04:27:15.357Z,91.90
2019-02-06T04:37:16.860Z,92.10
2019-02-06T04:47:18.278Z,92.40
2019-02-06T04:57:19.950Z,92.00
2019-02-06T05:07:21.805Z,92.20
2019-02-06T05:17:23.292Z,92.10
2019-02-06T05:27:26.572Z,92.10
2019-02-06T05:37:32.010Z,92.10
2019-02-06T05:47:31.303Z,92.30
2019-02-06T05:57:32.777Z,92.40
2019-02-06T06:07:44.793Z,93.00
2019-02-06T06:17:37.858Z,92.70
2019-02-06T06:27:40.411Z,92.40
2019-02-06T06:37:42.532Z,92.50
2019-02-06T06:47:43.940Z,92.40
2019-02-06T06:57:45.444Z,92.00
2019-02-06T07:07:47.180Z,92.00
2019-02-06T07:17:48.703Z,91.80
2019-02-06T07:27:51.219Z,91.60
2019-02-06T07:37:53.075Z,91.20
2019-02-06T07:47:54.481Z,90.80
2019-02-06T07:57:56.055Z,90.00
2019-02-06T08:07:57.884Z,89.50
2019-02-06T08:17:59.293Z,87.00
2019-02-06T08:28:01.688Z,85.10
2019-02-06T08:38:03.308Z,77.30
2019-02-06T08:48:04.920Z,74.00
2019-02-06T08:58:06.505Z,76.70
2019-02-06T09:08:08.137Z,74.20
2019-02-06T09:18:09.624Z,71.20
2019-02-06T09:28:11.972Z,70.80
2019-02-06T09:38:13.497Z,70.80
2019-02-06T09:48:14.912Z,69.10
2019-02-06T09:58:16.372Z,68.20
2019-02-06T10:08:18.420Z,66.50
2019-02-06T10:18:19.798Z,65.70
2019-02-06T10:28:24.303Z,63.20
2019-02-06T10:38:25.602Z,62.00
2019-02-06T10:48:27.020Z,60.80
2019-02-06T10:58:28.497Z,60.00
2019-02-06T11:08:30.025Z,61.70
2019-02-06T11:18:31.778Z,58.90
2019-02-06T11:28:34.112Z,60.30
2019-02-06T11:38:35.640Z,61.90
2019-02-06T11:48:37.016Z,62.00
2019-02-06T11:58:38.497Z,60.40
2019-02-06T12:08:40.399Z,61.10
2019-02-06T12:18:41.956Z,62.30
2019-02-06T12:28:44.684Z,61.00
2019-02-06T12:38:53.619Z,61.30
2019-02-06T12:48:49.524Z,61.10
2019-02-06T12:58:51.245Z,62.10
2019-02-06T13:08:52.680Z,63.40
2019-02-06T13:18:54.093Z,64.80
2019-02-06T13:28:56.568Z,64.30
2019-02-06T13:38:58.101Z,64.10
2019-02-06T13:48:59.522Z,65.00
2019-02-06T13:59:01.008Z,66.50
2019-02-06T14:09:07.155Z,66.90
2019-02-06T14:19:08.717Z,66.80
2019-02-06T14:29:30.293Z,67.50
2019-02-06T14:39:38.661Z,68.20
2019-02-06T15:00:59.825Z,69.80
2019-02-06T15:11:07.663Z,72.00
2019-02-06T15:21:27.457Z,72.40
2019-02-06T15:32:07.605Z,74.90
2019-02-06T15:42:21.954Z,77.80
2019-02-06T15:52:48.576Z,78.40
2019-02-06T16:03:16.476Z,79.30
2019-02-06T16:13:42.832Z,80.00
2019-02-06T16:24:18.680Z,82.80
2019-02-06T16:34:36.529Z,84.50
2019-02-06T16:45:02.766Z,85.10
2019-02-06T16:55:42.992Z,87.00
2019-02-06T17:05:48.588Z,89.00
2019-02-06T17:15:53.820Z,90.00
2019-02-06T17:26:05.165Z,90.80
2019-02-06T17:36:30.628Z,90.80
2019-02-06T17:46:42.160Z,90.60
2019-02-06T17:56:43.569Z,90.80
2019-02-06T18:06:45.134Z,90.90
2019-02-06T18:16:46.877Z,90.10
2019-02-06T18:26:48.293Z,92.40
2019-02-06T18:36:53.218Z,93.00
2019-02-06T18:46:58.091Z,92.90
2019-02-06T18:56:59.508Z,92.40
2019-02-06T19:07:01.016Z,92.60
2019-02-06T19:17:02.452Z,92.50
2019-02-06T19:27:03.977Z,93.00
2019-02-06T19:37:07.261Z,93.00
2019-02-06T19:47:08.808Z,93.50
2019-02-06T19:57:16.405Z,93.10
2019-02-06T20:07:17.811Z,93.30
2019-02-06T20:17:19.366Z,93.30
2019-02-06T20:27:20.828Z,93.10
2019-02-06T20:37:23.464Z,92.50
2019-02-06T20:47:25.012Z,93.60
2019-02-06T20:57:26.464Z,93.70
2019-02-06T21:07:28.153Z,93.80
2019-02-06T21:17:29.692Z,94.50
2019-02-06T21:27:31.223Z,93.60
2019-02-06T21:37:33.577Z,92.30
2019-02-06T21:47:35.165Z,93.60
2019-02-06T21:57:36.644Z,94.50
2019-02-06T22:07:38.024Z,94.00
2019-02-06T22:17:39.660Z,94.10
2019-02-06T22:27:41.109Z,94.00
2019-02-06T22:37:44.549Z,93.50
2019-02-06T22:47:46.321Z,93.00
2019-02-06T22:57:47.884Z,93.10
2019-02-06T23:07:49.305Z,93.40
2019-02-06T23:17:50.808Z,93.70
2019-02-06T23:27:52.224Z,93.10
2019-02-06T23:37:55.657Z,93.70
2019-02-06T23:47:57.183Z,93.90
2019-02-06T23:57:58.696Z,94.10
